TimeCDT,TemperatureF,Dew PointF,Humidity,Sea Level PressureIn,VisibilityMPH,Wind Direction,Wind SpeedMPH,Gust SpeedMPH,PrecipitationIn,Events,Conditions,WindDirDegrees,DateUTC
12:53 AM,46.9,41.0,80,30.14,10.0,NW,8.1,-,N/A,,Clear,320,2014-04-09 05:53:00
1:53 AM,46.0,39.9,79,30.14,10.0,North,4.6,-,N/A,,Clear,360,2014-04-09 06:53:00
2:53 AM,46.0,39.9,79,30.15,10.0,West,3.5,-,N/A,,Clear,280,2014-04-09 07:53:00
3:53 AM,46.0,37.9,73,30.16,10.0,Calm,Calm,-,N/A,,Clear,0,2014-04-09 08:53:00
4:53 AM,43.0,39.0,86,30.17,10.0,SW,3.5,-,N/A,,Clear,220,2014-04-09 09:53:00
5:53 AM,41.0,37.9,89,30.18,10.0,Calm,Calm,-,N/A,,Clear,0,2014-04-09 10:53:00
6:53 AM,39.9,37.9,93,30.21,10.0,Calm,Calm,-,N/A,,Clear,0,2014-04-09 11:53:00
7:53 AM,44.1,42.1,93,30.24,10.0,Calm,Calm,-,N/A,,Clear,0,2014-04-09 12:53:00
8:53 AM,52.0,41.0,66,30.26,10.0,Calm,Calm,-,N/A,,Clear,0,2014-04-09 13:53:00
9:48 AM,57.2,42.8,59,30.27,10.0,NW,5.8,-,N/A,,Partly Cloudy,310,2014-04-09 14:48:00
9:53 AM,59.0,41.0,51,30.27,10.0,NW,6.9,-,N/A,,Clear,310,2014-04-09 14:53:00
10:53 AM,62.1,39.0,43,30.28,10.0,Variable,4.6,-,N/A,,Clear,0,2014-04-09 15:53:00
11:53 AM,64.0,37.9,38,30.27,10.0,Calm,Calm,-,N/A,,Clear,0,2014-04-09 16:53:00
12:53 PM,66.0,36.0,33,30.26,10.0,NNW,4.6,-,N/A,,Clear,330,2014-04-09 17:53:00
1:53 PM,68.0,37.0,32,30.25,10.0,WSW,9.2,17.3,N/A,,Clear,250,2014-04-09 18:53:00
2:50 PM,69.8,37.4,31,30.22,10.0,NW,9.2,-,N/A,,Partly Cloudy,320,2014-04-09 19:50:00
2:53 PM,69.1,37.0,31,30.22,10.0,North,5.8,-,N/A,,Clear,350,2014-04-09 19:53:00
3:53 PM,70.0,35.1,28,30.18,10.0,NW,6.9,-,N/A,,Clear,320,2014-04-09 20:53:00
4:53 PM,71.1,35.1,27,30.17,10.0,Calm,Calm,-,N/A,,Clear,0,2014-04-09 21:53:00
5:53 PM,71.1,37.0,29,30.15,10.0,ENE,3.5,-,N/A,,Clear,70,2014-04-09 22:53:00
6:53 PM,66.9,37.9,34,30.14,10.0,South,4.6,-,N/A,,Clear,180,2014-04-09 23:53:00
7:53 PM,64.0,41.0,43,30.14,10.0,SSE,4.6,-,N/A,,Clear,150,2014-04-10 00:53:00
8:53 PM,60.1,45.0,57,30.15,10.0,SE,4.6,-,N/A,,Clear,140,2014-04-10 01:53:00
9:53 PM,59.0,44.1,58,30.17,10.0,SSE,4.6,-,N/A,,Clear,150,2014-04-10 02:53:00
10:53 PM,59.0,43.0,55,30.17,10.0,SSE,5.8,-,N/A,,Clear,150,2014-04-10 03:53:00
11:53 PM,57.0,44.1,62,30.17,10.0,SSE,3.5,-,N/A,,Clear,150,2014-04-10 04:53:00